Time;durP1;ratioP1;P1;durP2;ratioP2;P2;SDS_P1;SDS_P2;PMS_P1;PMS_P2;Temp;Humidity;BMP_temperature;BMP_pressure;BME280_temperature;BME280_humidity;BME280_pressure;Samples;Min_cycle;Max_cycle;Signal;HPM_P1;HPM_P2
2024/01/21 00:00:45;;;;;;;60.50;20.30;;;-3.40;99.90;;;;;;5092450;28;20020;-79
2024/01/21 00:03:11;;;;;;;67.83;21.00;;;-3.40;99.90;;;;;;5106471;28;20020;-79
2024/01/21 00:05:36;;;;;;;74.77;20.93;;;-3.40;99.90;;;;;;5093112;28;20027;-79
2024/01/21 00:08:02;;;;;;;69.10;22.23;;;-3.50;99.90;;;;;;5095696;28;20020;-78
2024/01/21 00:10:27;;;;;;;66.10;21.23;;;-3.50;99.90;;;;;;5094458;28;20030;-79
2024/01/21 00:12:53;;;;;;;66.37;21.37;;;-3.60;99.90;;;;;;5095545;28;20055;-79
2024/01/21 00:15:19;;;;;;;60.63;21.93;;;-3.60;99.90;;;;;;5094912;28;20337;-80
2024/01/21 00:17:44;;;;;;;69.53;22.03;;;-3.60;99.90;;;;;;5112657;28;20020;-79
2024/01/21 00:20:10;;;;;;;70.23;20.90;;;-3.50;99.90;;;;;;5093552;28;20020;-78
2024/01/21 00:22:36;;;;;;;60.60;20.03;;;-3.60;99.90;;;;;;5113103;28;20096;-78
2024/01/21 00:25:02;;;;;;;70.13;20.83;;;-3.50;99.90;;;;;;5095870;28;20460;-78
2024/01/21 00:27:27;;;;;;;64.90;19.80;;;-3.60;99.90;;;;;;5094818;28;20473;-79
2024/01/21 00:29:53;;;;;;;61.00;18.47;;;-3.60;99.90;;;;;;5095640;28;20024;-78
2024/01/21 00:32:18;;;;;;;55.83;18.63;;;-3.50;99.90;;;;;;5095541;28;20478;-80
2024/01/21 00:34:44;;;;;;;63.97;19.07;;;-3.40;99.90;;;;;;5089488;28;20107;-79
2024/01/21 00:37:10;;;;;;;71.60;20.13;;;-3.50;99.90;;;;;;5095603;28;20450;-78
2024/01/21 00:39:36;;;;;;;58.43;18.60;;;-3.50;99.90;;;;;;5113182;28;20410;-79
2024/01/21 00:42:01;;;;;;;70.63;20.93;;;-3.50;99.90;;;;;;5100835;28;20051;-78
2024/01/21 00:44:27;;;;;;;58.43;19.07;;;-3.40;99.90;;;;;;5113053;28;20084;-77
2024/01/21 00:46:53;;;;;;;60.53;19.30;;;-3.40;99.90;;;;;;5112153;28;20015;-79
2024/01/21 00:49:19;;;;;;;59.53;19.43;;;-3.40;99.90;;;;;;5095637;28;20156;-81
2024/01/21 00:51:44;;;;;;;61.37;19.33;;;-3.30;99.90;;;;;;5095647;28;20114;-78
2024/01/21 00:54:10;;;;;;;56.70;19.07;;;-3.30;99.90;;;;;;5096831;28;20032;-78
2024/01/21 00:56:35;;;;;;;59.93;20.00;;;-3.30;99.90;;;;;;5103363;28;20027;-79
2024/01/21 00:59:01;;;;;;;66.10;19.20;;;-3.30;99.90;;;;;;5087971;28;20031;-79
2024/01/21 01:01:26;;;;;;;62.03;18.67;;;-3.20;99.90;;;;;;5085056;28;20509;-78
2024/01/21 01:03:52;;;;;;;64.87;21.23;;;-3.20;99.90;;;;;;5090640;28;20022;-79
2024/01/21 01:06:18;;;;;;;67.33;20.57;;;-3.20;99.90;;;;;;5091290;28;20046;-78
2024/01/21 01:08:43;;;;;;;65.17;20.23;;;-3.20;99.90;;;;;;5086516;28;20024;-79
2024/01/21 01:11:09;;;;;;;60.63;19.47;;;-3.20;99.90;;;;;;5085937;28;20061;-79
2024/01/21 01:13:34;;;;;;;50.13;18.57;;;-3.10;99.90;;;;;;5090592;28;20645;-79
2024/01/21 01:16:00;;;;;;;64.07;19.87;;;-3.20;99.90;;;;;;5112818;28;20027;-78
2024/01/21 01:18:26;;;;;;;58.83;18.90;;;-3.20;99.90;;;;;;5100001;28;20445;-79
2024/01/21 01:20:51;;;;;;;61.10;20.77;;;-3.20;99.90;;;;;;5101296;28;20043;-78
2024/01/21 01:23:17;;;;;;;66.40;20.47;;;-3.10;99.90;;;;;;5116463;28;20373;-78
2024/01/21 01:25:43;;;;;;;73.53;20.77;;;-3.00;99.90;;;;;;5116681;28;20061;-79
2024/01/21 01:28:08;;;;;;;73.30;21.07;;;-3.10;99.90;;;;;;5110085;28;20022;-78
2024/01/21 01:30:34;;;;;;;60.17;20.10;;;-3.10;99.90;;;;;;5116272;28;20032;-78
2024/01/21 01:32:59;;;;;;;62.77;18.93;;;-3.10;99.90;;;;;;5104125;28;20024;-78
2024/01/21 01:35:26;;;;;;;57.10;19.23;;;-3.10;99.90;;;;;;5087938;28;20076;-79
2024/01/21 01:37:51;;;;;;;54.83;18.67;;;-3.10;99.90;;;;;;5112330;28;20055;-80
2024/01/21 01:40:20;;;;;;;53.50;17.33;;;-3.00;99.90;;;;;;5117144;28;20035;-80
2024/01/21 01:42:54;;;;;;;53.37;18.07;;;-3.00;99.90;;;;;;5095365;28;20374;-79
2024/01/21 01:45:20;;;;;;;50.17;17.33;;;-3.00;99.90;;;;;;5094935;28;20177;-80
2024/01/21 01:47:45;;;;;;;56.00;17.80;;;-3.00;99.90;;;;;;5096525;28;20079;-80
2024/01/21 01:50:11;;;;;;;60.27;18.83;;;-2.90;99.90;;;;;;5096617;28;20043;-79
2024/01/21 01:52:37;;;;;;;49.97;17.40;;;-2.90;99.90;;;;;;5096012;28;20444;-79
2024/01/21 01:55:02;;;;;;;52.30;17.73;;;-2.90;99.90;;;;;;5095409;28;20028;-78
2024/01/21 01:57:28;;;;;;;54.10;17.40;;;-2.90;99.90;;;;;;5077780;28;20034;-78
2024/01/21 01:59:54;;;;;;;51.53;16.13;;;-2.90;99.90;;;;;;5094745;28;20461;-78
2024/01/21 02:02:20;;;;;;;51.30;17.17;;;-3.00;99.90;;;;;;5095103;28;20043;-81
2024/01/21 02:04:45;;;;;;;51.60;16.93;;;-2.90;99.90;;;;;;5087456;28;20086;-79
2024/01/21 02:07:11;;;;;;;59.23;18.37;;;-2.80;99.90;;;;;;5092899;28;20106;-79
2024/01/21 02:09:36;;;;;;;58.30;17.23;;;-2.70;99.90;;;;;;5094779;28;20027;-78
2024/01/21 02:12:02;;;;;;;52.40;16.83;;;-2.70;99.90;;;;;;5094451;28;20056;-78
2024/01/21 02:14:28;;;;;;;53.27;16.47;;;-2.80;99.90;;;;;;5095353;28;20035;-79
2024/01/21 02:16:53;;;;;;;58.53;17.87;;;-2.80;99.90;;;;;;5095012;28;20020;-78
2024/01/21 02:19:27;;;;;;;54.60;16.63;;;-2.90;99.90;;;;;;5095525;28;20020;-82
2024/01/21 02:21:53;;;;;;;55.57;17.47;;;-2.90;99.90;;;;;;5094454;28;20012;-78
2024/01/21 02:24:19;;;;;;;48.60;15.50;;;-2.90;99.90;;;;;;5094290;28;20017;-80
2024/01/21 02:26:45;;;;;;;51.17;17.13;;;-2.90;99.90;;;;;;5094532;28;20028;-79
2024/01/21 02:29:10;;;;;;;56.23;16.57;;;-2.90;99.90;;;;;;5094187;28;20043;-78
2024/01/21 02:31:36;;;;;;;45.50;15.87;;;-2.90;99.90;;;;;;5093961;28;20026;-78
2024/01/21 02:34:01;;;;;;;51.60;17.07;;;-2.90;99.90;;;;;;5091431;28;20369;-79
2024/01/21 02:36:27;;;;;;;43.40;14.57;;;-2.90;99.90;;;;;;5085271;28;20020;-78
2024/01/21 02:38:53;;;;;;;46.50;15.80;;;-2.80;99.90;;;;;;5094366;28;20020;-78
2024/01/21 02:41:18;;;;;;;55.30;16.53;;;-2.80;99.90;;;;;;5095839;28;20349;-78
2024/01/21 02:43:44;;;;;;;50.93;16.80;;;-2.70;99.90;;;;;;5097200;28;20110;-79
2024/01/21 02:46:09;;;;;;;48.33;17.23;;;-2.70;99.90;;;;;;5097230;28;20012;-78
2024/01/21 02:48:35;;;;;;;49.67;16.57;;;-2.70;99.90;;;;;;5096525;28;20020;-78
2024/01/21 02:51:00;;;;;;;46.23;14.93;;;-2.70;99.90;;;;;;5115297;28;20068;-79
2024/01/21 02:53:26;;;;;;;45.73;15.27;;;-2.70;99.90;;;;;;5096750;28;20051;-78
2024/01/21 02:55:52;;;;;;;51.70;16.47;;;-2.70;99.90;;;;;;5097475;28;20015;-78
2024/01/21 02:58:17;;;;;;;48.87;15.87;;;-2.70;99.90;;;;;;5097023;28;20019;-78
2024/01/21 03:00:43;;;;;;;49.10;14.93;;;-2.70;99.90;;;;;;5096728;28;20023;-78
2024/01/21 03:03:10;;;;;;;44.87;14.80;;;-2.70;99.90;;;;;;5096609;28;20115;-79
2024/01/21 03:05:36;;;;;;;41.63;13.90;;;-2.70;99.90;;;;;;5085563;28;20456;-78
2024/01/21 03:08:02;;;;;;;44.30;15.53;;;-2.70;99.90;;;;;;5097047;28;20012;-78
2024/01/21 03:10:28;;;;;;;40.67;14.20;;;-2.70;99.90;;;;;;5095998;28;20027;-78
2024/01/21 03:12:53;;;;;;;43.80;14.67;;;-2.80;99.90;;;;;;5096642;28;20023;-78
2024/01/21 03:15:19;;;;;;;42.23;15.07;;;-2.80;99.90;;;;;;5096189;28;20058;-75
2024/01/21 03:17:44;;;;;;;45.33;14.53;;;-2.80;99.90;;;;;;5114069;28;20011;-78
2024/01/21 03:20:11;;;;;;;42.70;14.10;;;-2.80;99.90;;;;;;5114068;28;20031;-77
2024/01/21 03:22:36;;;;;;;50.43;15.27;;;-2.80;99.90;;;;;;5095814;28;20031;-77
2024/01/21 03:25:02;;;;;;;41.33;13.13;;;-2.80;99.90;;;;;;5096113;28;20016;-80
2024/01/21 03:27:28;;;;;;;40.47;12.93;;;-2.80;99.90;;;;;;5113703;28;20416;-76
2024/01/21 03:29:55;;;;;;;43.23;13.27;;;-2.80;99.90;;;;;;5096508;28;20042;-78
2024/01/21 03:32:20;;;;;;;41.27;13.87;;;-2.70;99.90;;;;;;5096297;28;20070;-83
2024/01/21 03:34:46;;;;;;;42.40;14.70;;;-2.70;99.90;;;;;;5114768;28;20577;-77
2024/01/21 03:37:11;;;;;;;36.53;12.57;;;-2.70;99.90;;;;;;5096096;28;20020;-76
2024/01/21 03:39:37;;;;;;;43.40;14.43;;;-2.70;99.90;;;;;;5095950;28;20024;-76
2024/01/21 03:42:03;;;;;;;40.27;14.47;;;-2.70;99.90;;;;;;5092517;28;20048;-76
2024/01/21 03:44:28;;;;;;;37.93;14.07;;;-2.80;99.90;;;;;;5091887;28;20020;-77
2024/01/21 03:46:54;;;;;;;43.17;14.60;;;-2.80;99.90;;;;;;5093434;28;20072;-77
2024/01/21 03:49:20;;;;;;;41.77;13.77;;;-2.80;99.90;;;;;;5092579;28;20345;-76
2024/01/21 03:51:45;;;;;;;40.30;13.33;;;-2.90;99.90;;;;;;5093272;28;20024;-76
2024/01/21 03:54:11;;;;;;;45.10;14.97;;;-2.90;99.90;;;;;;5092592;28;20479;-76
2024/01/21 03:56:36;;;;;;;34.33;12.93;;;-2.90;99.90;;;;;;5092039;28;20051;-76
2024/01/21 03:59:02;;;;;;;36.30;13.17;;;-2.90;99.90;;;;;;5092559;28;20020;-76
2024/01/21 04:01:27;;;;;;;39.43;12.80;;;-2.80;99.90;;;;;;5093665;28;20460;-77
2024/01/21 04:03:53;;;;;;;41.27;13.10;;;-2.80;99.90;;;;;;5093601;28;20035;-76
2024/01/21 04:06:18;;;;;;;45.60;13.20;;;-2.80;99.90;;;;;;5092454;28;20024;-76
2024/01/21 04:08:44;;;;;;;41.07;14.03;;;-2.80;99.90;;;;;;5093259;28;20073;-76
2024/01/21 04:11:09;;;;;;;38.67;13.07;;;-2.80;99.90;;;;;;5092178;28;20016;-76
2024/01/21 04:13:35;;;;;;;39.07;13.67;;;-2.70;99.90;;;;;;5093025;28;20032;-76
2024/01/21 04:16:01;;;;;;;39.43;12.70;;;-2.80;99.90;;;;;;5092510;28;20115;-78
2024/01/21 04:18:26;;;;;;;35.30;12.50;;;-2.80;99.90;;;;;;5092125;28;20028;-77
2024/01/21 04:20:52;;;;;;;39.03;14.37;;;-2.80;99.90;;;;;;5092482;28;20020;-75
2024/01/21 04:23:17;;;;;;;44.03;14.37;;;-2.70;99.90;;;;;;5092115;28;20338;-75
2024/01/21 04:25:43;;;;;;;40.13;13.33;;;-2.90;99.90;;;;;;5091422;28;20074;-76
2024/01/21 04:28:08;;;;;;;37.70;12.40;;;-2.80;99.90;;;;;;5091695;28;20024;-75
2024/01/21 04:30:35;;;;;;;45.90;14.07;;;-2.80;99.90;;;;;;5091447;28;20369;-76
2024/01/21 04:33:01;;;;;;;49.10;15.67;;;-2.80;99.90;;;;;;5091979;28;20028;-76
2024/01/21 04:35:27;;;;;;;43.70;14.57;;;-2.80;99.90;;;;;;5091626;28;20348;-76
2024/01/21 04:37:52;;;;;;;44.73;13.43;;;-2.90;99.90;;;;;;5093220;28;20472;-76
2024/01/21 04:40:18;;;;;;;40.83;12.53;;;-2.90;99.90;;;;;;5093140;28;20020;-75
2024/01/21 04:42:43;;;;;;;38.17;13.40;;;-2.90;99.90;;;;;;5091067;28;20044;-76
2024/01/21 04:45:09;;;;;;;36.30;11.80;;;-2.90;99.90;;;;;;5092013;28;20046;-76
2024/01/21 04:47:35;;;;;;;38.50;13.97;;;-2.90;99.90;;;;;;5092533;28;20073;-76
2024/01/21 04:50:01;;;;;;;42.63;14.63;;;-2.90;99.90;;;;;;5092054;28;20020;-76
2024/01/21 04:52:27;;;;;;;40.07;13.13;;;-2.90;99.90;;;;;;5092302;28;20457;-76
2024/01/21 04:54:53;;;;;;;40.57;13.90;;;-2.90;99.90;;;;;;5091809;28;20050;-76
2024/01/21 04:57:18;;;;;;;39.83;13.13;;;-3.00;99.90;;;;;;5095858;28;20479;-76
2024/01/21 04:59:44;;;;;;;41.80;12.93;;;-3.00;99.90;;;;;;5099336;28;20028;-76
2024/01/21 05:02:09;;;;;;;38.63;13.07;;;-3.00;99.90;;;;;;5100005;28;20035;-76
2024/01/21 05:04:35;;;;;;;43.30;14.40;;;-2.90;99.90;;;;;;5098277;28;20020;-76
2024/01/21 05:07:01;;;;;;;44.30;14.40;;;-2.90;99.90;;;;;;5098574;28;20464;-76
2024/01/21 05:09:26;;;;;;;45.10;13.67;;;-2.90;99.90;;;;;;5098123;28;20024;-81
2024/01/21 05:11:52;;;;;;;35.00;12.33;;;-2.90;99.90;;;;;;5098425;28;20020;-76
2024/01/21 05:14:17;;;;;;;42.93;13.43;;;-2.90;99.90;;;;;;5098526;28;20019;-76
2024/01/21 05:16:43;;;;;;;38.30;13.33;;;-2.90;99.90;;;;;;5097807;28;20020;-76
2024/01/21 05:19:09;;;;;;;42.70;14.63;;;-2.90;99.90;;;;;;5099646;28;20022;-76
2024/01/21 05:21:34;;;;;;;45.67;14.07;;;-2.90;99.90;;;;;;5098012;28;20056;-77
2024/01/21 05:24:00;;;;;;;45.13;14.73;;;-2.80;99.90;;;;;;5099589;28;20448;-77
2024/01/21 05:26:25;;;;;;;45.27;14.60;;;-2.80;99.90;;;;;;5100048;28;20027;-76
2024/01/21 05:28:52;;;;;;;39.83;13.47;;;-2.80;99.90;;;;;;5098987;28;20024;-76
2024/01/21 05:31:19;;;;;;;45.50;13.30;;;-2.80;99.90;;;;;;5098244;28;20072;-76
2024/01/21 05:33:46;;;;;;;39.37;13.30;;;-2.80;99.90;;;;;;5097529;28;20019;-76
2024/01/21 05:36:12;;;;;;;37.57;12.93;;;-2.80;99.90;;;;;;5098069;28;20031;-76
2024/01/21 05:38:38;;;;;;;50.73;13.00;;;-2.90;99.90;;;;;;5097669;28;20024;-76
2024/01/21 05:41:03;;;;;;;43.93;14.27;;;-2.80;99.90;;;;;;5099296;28;20460;-76
2024/01/21 05:43:29;;;;;;;40.20;14.40;;;-2.80;99.90;;;;;;5101016;28;20114;-76
2024/01/21 05:45:54;;;;;;;40.97;12.47;;;-2.90;99.90;;;;;;5119696;28;20019;-76
2024/01/21 05:48:20;;;;;;;43.10;14.30;;;-3.00;99.90;;;;;;5119678;28;20444;-76
2024/01/21 05:50:46;;;;;;;42.70;13.13;;;-3.00;99.90;;;;;;5101038;28;20016;-76
2024/01/21 05:53:11;;;;;;;41.47;13.53;;;-3.00;99.90;;;;;;5101056;28;20413;-76
2024/01/21 05:55:37;;;;;;;43.33;12.87;;;-3.00;99.90;;;;;;5119058;28;20038;-76
2024/01/21 05:58:02;;;;;;;36.77;12.33;;;-3.00;99.90;;;;;;5101266;28;20468;-76
2024/01/21 06:00:28;;;;;;;34.53;12.20;;;-3.00;99.90;;;;;;5101033;28;20037;-76
2024/01/21 06:02:54;;;;;;;39.80;13.03;;;-2.90;99.90;;;;;;5100768;28;20047;-76
2024/01/21 06:05:20;;;;;;;45.13;13.57;;;-2.90;99.90;;;;;;5101490;28;20349;-76
2024/01/21 06:07:46;;;;;;;34.77;12.87;;;-2.90;99.90;;;;;;5099698;28;20031;-76
2024/01/21 06:10:12;;;;;;;43.50;13.77;;;-2.90;99.90;;;;;;5097751;28;20015;-76
2024/01/21 06:12:37;;;;;;;37.23;12.83;;;-2.90;99.90;;;;;;5115724;28;20037;-76
2024/01/21 06:15:04;;;;;;;35.97;12.60;;;-2.90;99.90;;;;;;5097937;28;20019;-76
2024/01/21 06:17:29;;;;;;;43.50;13.87;;;-2.90;99.90;;;;;;5098021;28;20020;-76
2024/01/21 06:19:56;;;;;;;41.37;12.77;;;-2.90;99.90;;;;;;5097497;28;20023;-76
2024/01/21 06:22:22;;;;;;;35.60;12.73;;;-2.90;99.90;;;;;;5098204;28;20030;-77
2024/01/21 06:24:48;;;;;;;37.33;12.87;;;-3.00;99.90;;;;;;5115642;28;20512;-77
2024/01/21 06:27:13;;;;;;;39.33;13.70;;;-3.10;99.90;;;;;;5097697;28;20118;-76
2024/01/21 06:29:39;;;;;;;38.80;12.53;;;-3.20;99.90;;;;;;5097114;28;20123;-76
2024/01/21 06:32:05;;;;;;;39.23;12.50;;;-3.20;99.90;;;;;;5115801;28;20026;-77
2024/01/21 06:34:31;;;;;;;42.40;13.07;;;-3.20;99.90;;;;;;5097842;28;20034;-76
2024/01/21 06:36:56;;;;;;;40.63;13.10;;;-3.20;99.90;;;;;;5115740;28;20453;-76
2024/01/21 06:39:22;;;;;;;39.10;12.57;;;-3.20;99.90;;;;;;5115872;28;20023;-76
2024/01/21 06:41:47;;;;;;;46.20;13.97;;;-3.20;99.90;;;;;;5096853;28;20054;-76
2024/01/21 06:44:13;;;;;;;43.67;14.20;;;-3.20;99.90;;;;;;5097878;28;20023;-76
2024/01/21 06:46:38;;;;;;;35.77;11.70;;;-3.10;99.90;;;;;;5115064;28;20345;-76
2024/01/21 06:49:04;;;;;;;46.47;12.67;;;-3.20;99.90;;;;;;5115656;28;20082;-75
2024/01/21 06:51:32;;;;;;;39.27;12.87;;;-3.20;99.90;;;;;;5097279;28;20448;-75
2024/01/21 06:54:03;;;;;;;38.00;13.67;;;-3.20;99.90;;;;;;5097099;28;20034;-75
2024/01/21 06:56:28;;;;;;;36.30;12.60;;;-3.30;99.90;;;;;;5115230;28;20030;-76
2024/01/21 06:58:54;;;;;;;37.63;13.97;;;-3.20;99.90;;;;;;5096944;28;20027;-77
2024/01/21 07:01:20;;;;;;;41.07;13.83;;;-3.20;99.90;;;;;;5110987;28;20065;-77
2024/01/21 07:03:45;;;;;;;38.53;13.07;;;-3.20;99.90;;;;;;5093730;28;20035;-78
2024/01/21 07:06:11;;;;;;;36.93;13.03;;;-3.20;99.90;;;;;;5096786;28;20383;-77
2024/01/21 07:08:38;;;;;;;35.17;12.60;;;-3.30;99.90;;;;;;5096156;28;20020;-77
2024/01/21 07:11:10;;;;;;;37.20;13.63;;;-3.20;99.90;;;;;;5114910;28;20016;-77
2024/01/21 07:13:35;;;;;;;35.72;12.30;;;-3.30;99.90;;;;;;5112122;28;20015;-77
2024/01/21 07:16:02;;;;;;;38.07;12.83;;;-3.30;99.90;;;;;;5095937;28;20084;-77
2024/01/21 07:18:27;;;;;;;35.27;13.77;;;-3.30;99.90;;;;;;5094117;28;20042;-77
2024/01/21 07:20:53;;;;;;;38.30;12.73;;;-3.40;99.90;;;;;;5114583;28;20429;-77
2024/01/21 07:23:18;;;;;;;38.90;13.03;;;-3.40;99.90;;;;;;5097155;28;20030;-77
2024/01/21 07:25:45;;;;;;;38.93;13.37;;;-3.30;99.90;;;;;;5114139;28;20024;-77
2024/01/21 07:28:11;;;;;;;35.53;13.07;;;-3.30;99.90;;;;;;5096880;28;20030;-77
2024/01/21 07:30:36;;;;;;;45.60;13.73;;;-3.40;99.90;;;;;;5114527;28;20438;-84
2024/01/21 07:33:03;;;;;;;39.80;12.67;;;-3.30;99.90;;;;;;5114387;28;20027;-77
2024/01/21 07:35:28;;;;;;;43.93;14.27;;;-3.20;99.90;;;;;;5114833;28;20414;-77
2024/01/21 07:37:54;;;;;;;45.90;15.27;;;-3.10;99.90;;;;;;5096273;28;20171;-77
2024/01/21 07:40:19;;;;;;;36.80;14.00;;;-3.10;99.90;;;;;;5114882;28;20055;-77
2024/01/21 07:42:46;;;;;;;42.67;14.07;;;-3.00;99.90;;;;;;5114667;28;20372;-77
2024/01/21 07:45:12;;;;;;;40.57;13.43;;;-3.00;99.90;;;;;;5096676;28;20114;-76
2024/01/21 07:47:37;;;;;;;41.83;13.53;;;-3.10;99.90;;;;;;5114311;28;20055;-78
2024/01/21 07:50:04;;;;;;;40.80;13.60;;;-3.00;99.90;;;;;;5096645;28;20053;-77
2024/01/21 07:52:30;;;;;;;41.57;12.70;;;-3.00;99.90;;;;;;5096326;28;20034;-77
2024/01/21 07:54:56;;;;;;;40.40;15.27;;;-3.00;99.90;;;;;;5096299;28;20087;-77
2024/01/21 07:57:22;;;;;;;39.77;13.70;;;-3.00;99.90;;;;;;5096164;28;20107;-77
2024/01/21 07:59:47;;;;;;;44.83;15.90;;;-3.10;99.90;;;;;;5095886;28;20027;-77
2024/01/21 08:02:13;;;;;;;42.10;14.37;;;-3.20;99.90;;;;;;5096422;28;20034;-77
2024/01/21 08:04:39;;;;;;;37.90;14.27;;;-3.20;99.90;;;;;;5096036;28;20026;-78
2024/01/21 08:07:04;;;;;;;41.67;14.70;;;-3.20;99.90;;;;;;5096503;28;20475;-77
2024/01/21 08:09:30;;;;;;;43.40;14.27;;;-3.20;99.90;;;;;;5096224;28;20051;-77
2024/01/21 08:11:55;;;;;;;38.97;13.50;;;-3.20;99.90;;;;;;5095663;28;20027;-78
2024/01/21 08:14:21;;;;;;;38.10;13.23;;;-3.10;99.90;;;;;;5095830;28;20026;-77
2024/01/21 08:16:47;;;;;;;36.83;13.57;;;-3.10;99.90;;;;;;5113454;28;20376;-77
2024/01/21 08:19:12;;;;;;;38.60;13.43;;;-3.00;99.90;;;;;;5114464;28;20026;-77
2024/01/21 08:21:38;;;;;;;33.97;12.87;;;-3.00;99.90;;;;;;5095345;28;20020;-79
2024/01/21 08:24:04;;;;;;;44.17;13.53;;;-3.10;99.90;;;;;;5096275;28;20122;-77
2024/01/21 08:26:30;;;;;;;37.77;13.30;;;-3.00;99.90;;;;;;5113883;28;20438;-77
2024/01/21 08:28:55;;;;;;;37.47;13.73;;;-3.00;99.90;;;;;;5113645;28;20050;-77
2024/01/21 08:31:21;;;;;;;38.50;12.73;;;-3.00;99.90;;;;;;5095545;28;20114;-77
2024/01/21 08:33:46;;;;;;;34.00;13.47;;;-2.90;99.90;;;;;;5095296;28;20483;-77
2024/01/21 08:36:12;;;;;;;35.93;12.67;;;-2.90;99.90;;;;;;5095958;28;20111;-76
2024/01/21 08:38:38;;;;;;;33.97;12.13;;;-2.80;99.90;;;;;;5113968;28;20410;-76
2024/01/21 08:41:04;;;;;;;34.47;11.80;;;-2.80;99.90;;;;;;5095599;28;20071;-76
2024/01/21 08:43:30;;;;;;;37.20;13.17;;;-2.70;99.90;;;;;;5095771;28;20122;-77
2024/01/21 08:45:55;;;;;;;31.03;11.57;;;-2.70;99.90;;;;;;5095164;28;20440;-77
2024/01/21 08:48:21;;;;;;;30.50;11.33;;;-2.70;99.90;;;;;;5113974;28;20085;-77
2024/01/21 08:50:47;;;;;;;35.23;12.43;;;-2.60;99.90;;;;;;5113086;28;20016;-77
2024/01/21 08:53:12;;;;;;;32.27;12.27;;;-2.60;99.90;;;;;;5113454;28;20485;-77
2024/01/21 08:55:38;;;;;;;36.83;13.20;;;-2.70;99.90;;;;;;5113471;28;20023;-77
2024/01/21 08:58:04;;;;;;;36.27;13.10;;;-2.70;99.90;;;;;;5094891;28;20024;-77
2024/01/21 09:00:29;;;;;;;34.20;13.60;;;-2.70;99.90;;;;;;5113615;28;20024;-77
2024/01/21 09:02:55;;;;;;;33.80;12.53;;;-2.60;99.90;;;;;;5112834;28;20027;-77
2024/01/21 09:05:20;;;;;;;37.00;13.43;;;-2.70;99.90;;;;;;5095639;28;20022;-77
2024/01/21 09:07:46;;;;;;;35.77;13.17;;;-2.60;99.90;;;;;;5094848;28;20448;-77
2024/01/21 09:10:12;;;;;;;38.73;13.27;;;-2.60;99.90;;;;;;5095501;28;20115;-77
2024/01/21 09:12:38;;;;;;;36.57;13.03;;;-2.50;99.90;;;;;;5095095;28;20023;-77
2024/01/21 09:15:05;;;;;;;36.17;13.97;;;-2.50;99.90;;;;;;5113116;28;20031;-76
2024/01/21 09:17:31;;;;;;;34.37;13.17;;;-2.40;99.90;;;;;;5095128;28;20024;-76
2024/01/21 09:19:56;;;;;;;31.63;12.33;;;-2.40;99.90;;;;;;5094377;28;20467;-76
2024/01/21 09:22:22;;;;;;;34.43;12.67;;;-2.40;99.90;;;;;;5095159;28;20376;-76
2024/01/21 09:24:47;;;;;;;37.33;13.20;;;-2.40;99.90;;;;;;5094335;28;20023;-76
2024/01/21 09:27:13;;;;;;;29.73;12.60;;;-2.40;99.90;;;;;;5094892;28;20030;-77
2024/01/21 09:29:39;;;;;;;34.77;12.77;;;-2.30;99.90;;;;;;5094872;28;20027;-76
2024/01/21 09:32:05;;;;;;;32.93;12.00;;;-2.30;99.90;;;;;;5112600;28;20019;-77
2024/01/21 09:34:30;;;;;;;32.33;12.70;;;-2.20;99.90;;;;;;5094856;28;20020;-77
2024/01/21 09:36:56;;;;;;;32.57;13.77;;;-2.20;99.90;;;;;;5094271;28;20023;-76
2024/01/21 09:39:22;;;;;;;35.23;13.70;;;-2.20;99.90;;;;;;5094779;28;20016;-76
2024/01/21 09:41:49;;;;;;;32.77;12.50;;;-2.10;99.90;;;;;;5091058;28;20040;-78
2024/01/21 09:44:26;;;;;;;35.63;12.53;;;-2.10;99.90;;;;;;5095217;28;20053;-78
2024/01/21 09:46:59;;;;;;;35.00;12.53;;;-2.10;99.90;;;;;;5094942;28;20024;-78
2024/01/21 09:49:26;;;;;;;31.17;12.07;;;-2.00;99.90;;;;;;5095769;28;20414;-77
2024/01/21 09:51:52;;;;;;;33.27;12.43;;;-2.00;99.90;;;;;;5094981;28;20024;-78
2024/01/21 09:54:20;;;;;;;33.23;12.43;;;-2.00;99.90;;;;;;5095624;28;20036;-77
2024/01/21 09:56:46;;;;;;;29.03;12.57;;;-2.00;99.90;;;;;;5094788;28;20471;-78
2024/01/21 09:59:12;;;;;;;29.57;12.30;;;-1.90;99.90;;;;;;5095136;28;20055;-77
2024/01/21 10:01:40;;;;;;;32.17;12.93;;;-1.90;99.90;;;;;;5095290;28;20058;-77
2024/01/21 10:04:10;;;;;;;31.47;12.73;;;-1.90;99.90;;;;;;5094854;28;20024;-77
2024/01/21 10:06:36;;;;;;;34.63;13.00;;;-1.90;99.90;;;;;;5094675;28;20020;-77
2024/01/21 10:09:21;;;;;;;33.23;12.73;;;-1.80;99.90;;;;;;5094460;28;20016;-77
2024/01/21 10:11:50;;;;;;;29.87;12.20;;;-1.80;99.90;;;;;;5094627;28;20107;-78
2024/01/21 10:14:16;;;;;;;30.33;11.97;;;-1.80;99.90;;;;;;5094431;28;20457;-77
2024/01/21 10:16:43;;;;;;;31.43;12.07;;;-1.70;99.90;;;;;;5096079;28;20028;-77
2024/01/21 10:19:12;;;;;;;30.70;13.53;;;-1.60;99.90;;;;;;5094239;28;20402;-77
2024/01/21 10:21:38;;;;;;;34.57;11.90;;;-1.50;99.90;;;;;;5094237;28;20024;-76
2024/01/21 10:24:10;;;;;;;33.13;13.63;;;-1.40;99.90;;;;;;5094162;28;20020;-78
2024/01/21 10:26:41;;;;;;;33.50;13.20;;;-1.40;99.90;;;;;;5090830;28;20368;-79
2024/01/21 10:29:07;;;;;;;32.03;12.27;;;-1.40;99.90;;;;;;5086705;28;20457;-78
2024/01/21 10:31:33;;;;;;;34.00;13.77;;;-1.40;99.90;;;;;;5094547;28;20020;-79
2024/01/21 10:34:02;;;;;;;33.43;13.17;;;-1.40;99.90;;;;;;5093933;28;20030;-78
2024/01/21 10:36:32;;;;;;;36.87;14.23;;;-1.40;99.90;;;;;;5094454;28;20066;-79
2024/01/21 10:39:01;;;;;;;33.30;13.83;;;-1.40;99.90;;;;;;5093816;28;20027;-78
2024/01/21 10:41:33;;;;;;;37.67;13.63;;;-1.40;99.90;;;;;;5097455;28;20050;-78
2024/01/21 10:44:01;;;;;;;42.03;14.10;;;-1.40;99.90;;;;;;5095255;28;20369;-78
2024/01/21 10:46:32;;;;;;;36.90;13.80;;;-1.30;99.90;;;;;;5094344;28;20093;-78
2024/01/21 10:48:58;;;;;;;38.33;14.00;;;-1.30;99.90;;;;;;5105114;28;20047;-78
2024/01/21 10:51:24;;;;;;;34.97;14.30;;;-1.20;99.90;;;;;;5099423;28;20024;-78
2024/01/21 10:53:51;;;;;;;38.17;14.13;;;-1.20;99.90;;;;;;5094392;28;20028;-81
2024/01/21 10:56:19;;;;;;;43.77;14.67;;;-1.30;99.90;;;;;;5096543;28;20058;-79
2024/01/21 10:58:46;;;;;;;42.80;15.97;;;-1.30;99.90;;;;;;5105235;28;20092;-83
2024/01/21 11:01:14;;;;;;;40.47;14.50;;;-1.30;99.90;;;;;;5106432;28;20024;-78
2024/01/21 11:03:40;;;;;;;36.40;13.77;;;-1.30;99.90;;;;;;5098137;28;20036;-80
2024/01/21 11:06:08;;;;;;;39.80;14.67;;;-1.20;99.90;;;;;;5110497;28;20094;-78
2024/01/21 11:08:35;;;;;;;36.27;14.17;;;-1.20;99.90;;;;;;5102124;28;20110;-78
2024/01/21 11:11:02;;;;;;;40.13;14.63;;;-1.20;99.90;;;;;;5102919;28;20024;-78
2024/01/21 11:13:50;;;;;;;38.73;15.47;;;-1.20;99.90;;;;;;5108563;28;20042;-79
2024/01/21 11:16:25;;;;;;;41.67;14.80;;;-1.20;99.90;;;;;;5082976;28;20020;-78
2024/01/21 11:18:51;;;;;;;38.83;14.07;;;-1.10;99.90;;;;;;5113685;28;20475;-80
2024/01/21 11:21:21;;;;;;;35.40;13.53;;;-1.10;99.90;;;;;;5114172;28;20057;-79
2024/01/21 11:24:01;;;;;;;35.57;14.03;;;-1.10;99.90;;;;;;5096948;28;20020;-79
2024/01/21 11:26:29;;;;;;;31.63;13.80;;;-1.00;99.90;;;;;;5095173;28;20378;-78
2024/01/21 11:28:58;;;;;;;32.23;13.07;;;-1.00;99.90;;;;;;5113296;28;20027;-78
2024/01/21 11:31:25;;;;;;;37.03;14.07;;;-1.00;99.90;;;;;;5099892;28;20027;-78
2024/01/21 11:34:11;;;;;;;34.50;13.60;;;-1.00;99.90;;;;;;5109711;28;20031;-78
2024/01/21 11:36:42;;;;;;;40.20;14.40;;;-1.00;99.90;;;;;;5100692;28;20027;-78
2024/01/21 11:39:08;;;;;;;29.20;12.93;;;-0.90;99.90;;;;;;5101804;28;20376;-78
2024/01/21 11:41:43;;;;;;;36.30;13.27;;;-0.80;99.90;;;;;;5108094;28;20039;-78
2024/01/21 11:44:09;;;;;;;31.43;13.13;;;-0.70;99.90;;;;;;5096446;28;20019;-78
2024/01/21 11:46:36;;;;;;;29.57;12.40;;;-0.70;99.90;;;;;;5108026;28;20073;-79
2024/01/21 11:49:11;;;;;;;27.33;12.47;;;-0.60;99.90;;;;;;5103779;28;20016;-78
2024/01/21 11:51:40;;;;;;;32.27;13.57;;;-0.60;99.90;;;;;;5098089;28;20122;-79
2024/01/21 11:54:07;;;;;;;35.17;14.33;;;-0.60;99.90;;;;;;5109780;28;20027;-79
2024/01/21 11:56:34;;;;;;;32.60;12.67;;;-0.50;99.90;;;;;;5091238;28;20026;-79
2024/01/21 11:59:00;;;;;;;26.87;11.70;;;-0.40;99.90;;;;;;5103660;27;20059;-78
2024/01/21 12:01:26;;;;;;;31.73;12.47;;;-0.40;99.90;;;;;;5107445;28;20019;-78
2024/01/21 12:03:53;;;;;;;34.13;13.43;;;-0.30;99.90;;;;;;5096378;28;20031;-78
2024/01/21 12:06:19;;;;;;;33.00;12.83;;;-0.30;99.90;;;;;;5108177;28;20362;-77
2024/01/21 12:08:45;;;;;;;30.00;12.33;;;-0.20;99.90;;;;;;5100945;28;20034;-77
2024/01/21 12:11:18;;;;;;;28.93;11.03;;;-0.20;99.90;;;;;;5100363;28;20027;-79
2024/01/21 12:13:44;;;;;;;30.33;12.27;;;0.00;99.90;;;;;;5108639;28;20028;-78
2024/01/21 12:16:13;;;;;;;27.87;12.63;;;0.10;99.90;;;;;;5095458;28;20016;-77
2024/01/21 12:18:43;;;;;;;26.60;12.43;;;0.30;99.90;;;;;;5104636;28;20118;-78
2024/01/21 12:21:14;;;;;;;29.50;12.10;;;0.40;99.90;;;;;;5091388;28;20020;-75
2024/01/21 12:23:42;;;;;;;26.20;11.38;;;0.60;99.90;;;;;;5093455;28;20452;-76